Time;durP1;ratioP1;P1;durP2;ratioP2;P2;SDS_P1;SDS_P2;PMS_P1;PMS_P2;Temp;Humidity;BMP_temperature;BMP_pressure;BME280_temperature;BME280_humidity;BME280_pressure;Samples;Min_cycle;Max_cycle;Signal;HPM_P1;HPM_P2
2022/11/16 00:02:29;;;;;;;137.52;77.90;;;;;;;6.25;82.79;99586.27;2263968;78;29051;-66
2022/11/16 00:05:31;;;;;;;137.00;79.42;;;;;;;6.24;82.81;99591.19;2264235;78;27710;-66
2022/11/16 00:08:36;;;;;;;125.58;77.35;;;;;;;6.22;82.84;99583.28;2264052;78;28642;-66
2022/11/16 00:11:38;;;;;;;119.67;74.12;;;;;;;6.24;82.90;99576.55;2264443;78;31802;-67
2022/11/16 00:14:40;;;;;;;124.40;77.82;;;;;;;6.25;82.88;99572.12;2264052;78;32964;-67
2022/11/16 00:17:41;;;;;;;128.53;77.78;;;;;;;6.25;82.91;99568.98;2263932;78;29131;-67
2022/11/16 00:20:44;;;;;;;131.20;78.40;;;;;;;6.27;82.90;99566.27;2264342;78;27657;-67
2022/11/16 00:23:46;;;;;;;130.47;75.65;;;;;;;6.27;82.97;99556.96;2264285;78;28676;-66
2022/11/16 00:26:48;;;;;;;128.27;78.20;;;;;;;6.29;83.11;99562.60;2264118;78;31819;-66
2022/11/16 00:29:50;;;;;;;133.22;77.67;;;;;;;6.30;83.09;99552.36;2263850;78;33045;-67
2022/11/16 00:32:52;;;;;;;136.75;81.53;;;;;;;6.33;83.09;99551.35;2263985;78;29101;-67
2022/11/16 00:35:54;;;;;;;136.77;79.72;;;;;;;6.34;83.30;99553.97;2263525;78;28018;-67
2022/11/16 00:38:56;;;;;;;135.43;79.67;;;;;;;6.34;83.43;99546.43;2263484;78;28747;-66
2022/11/16 00:41:58;;;;;;;123.55;72.72;;;;;;;6.36;83.50;99549.44;2236521;78;31355;-66
2022/11/16 00:44:59;;;;;;;123.87;74.20;;;;;;;6.37;83.64;99544.48;2263740;78;34178;-67
2022/11/16 00:48:01;;;;;;;118.22;71.53;;;;;;;6.38;83.78;99543.56;2263482;78;30071;-66
2022/11/16 00:51:03;;;;;;;123.95;73.37;;;;;;;6.40;83.84;99550.16;2263551;78;28262;-66
2022/11/16 00:54:07;;;;;;;121.90;72.70;;;;;;;6.41;83.98;99546.57;2235271;78;28655;-66
2022/11/16 00:57:08;;;;;;;127.07;73.47;;;;;;;6.41;84.03;99549.23;2254531;79;31071;-66
2022/11/16 01:00:12;;;;;;;114.80;67.45;;;;;;;6.43;84.12;99548.70;2229801;79;32609;-66
2022/11/16 01:03:14;;;;;;;122.58;73.97;;;;;;;6.46;84.27;99558.33;2131817;81;31075;-66
2022/11/16 01:06:16;;;;;;;118.42;71.30;;;;;;;6.47;84.31;99550.27;2236788;79;27733;-67
2022/11/16 01:09:18;;;;;;;117.10;68.67;;;;;;;6.49;84.42;99540.91;2236346;79;28698;-66
2022/11/16 01:12:20;;;;;;;111.25;70.90;;;;;;;6.51;84.51;99537.71;2210724;79;32399;-67
2022/11/16 01:15:25;;;;;;;103.95;62.98;;;;;;;6.52;84.64;99536.78;2236694;79;34427;-67
2022/11/16 01:18:26;;;;;;;106.35;64.55;;;;;;;6.54;84.82;99534.88;2237152;79;29176;-67
2022/11/16 01:21:28;;;;;;;101.05;63.90;;;;;;;6.55;84.86;99532.62;2237172;79;27800;-66
2022/11/16 01:24:30;;;;;;;107.70;65.57;;;;;;;6.55;84.97;99528.63;2237068;79;28635;-66
2022/11/16 01:27:32;;;;;;;105.52;64.72;;;;;;;6.57;84.93;99528.09;2236924;79;31157;-66
2022/11/16 01:30:33;;;;;;;110.40;64.77;;;;;;;6.57;84.99;99524.11;2237184;79;33848;-66
2022/11/16 01:33:36;;;;;;;109.80;68.02;;;;;;;6.61;85.01;99523.52;2260791;78;29004;-66
2022/11/16 01:36:38;;;;;;;109.83;65.57;;;;;;;6.63;84.96;99529.16;2261088;78;27729;-66
2022/11/16 01:39:39;;;;;;;101.62;63.63;;;;;;;6.66;85.00;99530.36;2260980;78;28636;-67
2022/11/16 01:42:41;;;;;;;105.97;65.22;;;;;;;6.67;85.06;99521.89;2260507;78;31127;-66
2022/11/16 01:45:43;;;;;;;108.78;66.55;;;;;;;6.68;85.00;99517.84;2261058;78;32928;-66
2022/11/16 01:48:45;;;;;;;107.75;66.12;;;;;;;6.69;85.01;99514.70;2260976;78;29171;-67
2022/11/16 01:51:52;;;;;;;104.32;63.20;;;;;;;6.70;84.94;99515.09;2261085;78;27708;-66
2022/11/16 01:54:54;;;;;;;104.70;63.20;;;;;;;6.72;84.92;99515.02;2260742;78;28653;-66
2022/11/16 01:57:56;;;;;;;101.27;63.15;;;;;;;6.71;84.91;99507.97;2267343;78;31204;-66
2022/11/16 02:00:57;;;;;;;106.58;66.02;;;;;;;6.68;84.83;99503.20;2267419;78;33798;-67
2022/11/16 02:03:59;;;;;;;104.45;65.15;;;;;;;6.67;84.76;99498.81;2267445;78;29056;-66
2022/11/16 02:11:31;;;;;;;105.63;62.70;;;;;;;6.62;84.57;99495.49;2267225;78;28705;-66
2022/11/16 02:15:10;;;;;;;103.32;63.70;;;;;;;6.56;84.50;99490.44;2265651;78;31204;-66
2022/11/16 02:18:45;;;;;;;106.25;64.42;;;;;;;6.52;84.45;99488.88;2265109;78;33821;-66
2022/11/16 02:21:51;;;;;;;106.37;65.30;;;;;;;6.48;84.47;99485.48;2266909;78;29023;-67
2022/11/16 02:25:27;;;;;;;105.45;64.03;;;;;;;6.45;84.50;99484.31;2266035;78;27700;-68
2022/11/16 02:28:47;;;;;;;;;;;;;;;6.44;84.48;99483.03;2269365;78;28283;-66
2022/11/16 02:32:05;;;;;;;100.58;60.75;;;;;;;6.43;84.46;99476.86;2175587;81;31014;-66
2022/11/16 02:35:33;;;;;;;112.97;66.47;;;;;;;6.36;84.37;99480.73;2174986;81;33986;-66
2022/11/16 02:38:38;;;;;;;103.02;63.33;;;;;;;6.30;84.32;99483.20;2175686;81;29032;-66
2022/11/16 02:41:41;;;;;;;101.27;63.05;;;;;;;6.26;84.37;99482.09;2175489;81;27735;-67
2022/11/16 02:44:46;;;;;;;115.72;68.20;;;;;;;6.22;84.42;99476.90;2175435;81;28656;-66
2022/11/16 02:47:50;;;;;;;107.70;65.35;;;;;;;6.21;84.44;99480.48;2175645;81;31188;-67
2022/11/16 02:50:52;;;;;;;115.70;67.12;;;;;;;6.18;84.31;99481.10;2175380;81;32952;-66
2022/11/16 02:54:10;;;;;;;115.22;70.35;;;;;;;6.14;84.37;99478.17;2175398;81;29835;-66
2022/11/16 02:57:28;;;;;;;106.10;63.17;;;;;;;6.12;84.42;99485.36;2171859;81;27724;-66
2022/11/16 03:00:46;;;;;;;109.30;65.35;;;;;;;6.11;84.36;99494.27;2171795;81;29534;-67
2022/11/16 03:03:53;;;;;;;103.07;62.50;;;;;;;6.05;84.30;99494.92;2171721;81;31022;-67
2022/11/16 03:06:55;;;;;;;93.65;56.65;;;;;;;6.03;84.33;99494.59;2171829;81;33751;-67
2022/11/16 03:09:57;;;;;;;93.55;56.33;;;;;;;5.92;84.09;99487.94;2250446;79;29034;-67
2022/11/16 03:13:00;;;;;;;97.75;57.83;;;;;;;5.86;84.18;99490.84;2228280;79;27713;-67
2022/11/16 03:16:16;;;;;;;93.35;53.45;;;;;;;5.80;84.13;99484.94;2228687;79;28673;-66
2022/11/16 03:19:23;;;;;;;93.65;53.83;;;;;;;5.76;84.30;99497.50;2184938;81;31012;-67
2022/11/16 03:22:48;;;;;;;90.40;52.38;;;;;;;5.71;84.29;99489.70;2183479;81;33655;-67
2022/11/16 03:25:51;;;;;;;84.03;51.05;;;;;;;5.68;84.44;99488.53;2184700;81;29011;-65
2022/11/16 03:29:02;;;;;;;85.07;47.70;;;;;;;5.61;84.49;99491.92;2184823;81;27714;-66
2022/11/16 03:32:15;;;;;;;84.92;49.25;;;;;;;5.55;84.51;99485.52;2184712;81;28655;-66
2022/11/16 03:35:28;;;;;;;88.60;50.03;;;;;;;5.49;84.55;99488.42;2184684;81;31745;-65
2022/11/16 03:38:30;;;;;;;80.20;48.48;;;;;;;5.45;84.72;99492.16;2184838;81;33023;-66
2022/11/16 03:41:32;;;;;;;89.92;49.27;;;;;;;5.37;84.68;99477.88;2184735;81;29032;-67
2022/11/16 03:44:34;;;;;;;79.10;48.17;;;;;;;5.31;84.67;99472.80;2184858;81;27817;-66
2022/11/16 03:47:36;;;;;;;79.50;45.92;;;;;;;5.28;84.85;99462.30;2184763;81;29439;-66
2022/11/16 03:50:39;;;;;;;82.17;47.27;;;;;;;5.25;84.96;99465.95;2184710;81;31809;-67
2022/11/16 03:53:40;;;;;;;74.70;43.60;;;;;;;5.21;84.84;99461.69;2184596;81;32969;-66
2022/11/16 03:56:42;;;;;;;73.40;43.55;;;;;;;5.14;84.91;99454.45;2208875;79;29012;-66
2022/11/16 03:59:44;;;;;;;71.82;43.42;;;;;;;5.13;84.92;99456.70;2213070;80;27597;-66
2022/11/16 04:02:49;;;;;;;69.72;41.33;;;;;;;5.11;84.90;99451.06;2213047;80;29835;-67
2022/11/16 04:25:46;;;;;;;72.12;41.42;;;;;;;4.99;85.40;99441.80;2118447;84;33023;-66
2022/11/16 04:28:48;;;;;;;70.15;41.75;;;;;;;4.98;85.53;99435.61;2118600;84;29830;-67
2022/11/16 04:38:29;;;;;;;76.20;43.90;;;;;;;4.99;85.59;99429.86;2117971;84;31901;-67
2022/11/16 04:48:13;;;;;;;74.87;41.45;;;;;;;5.06;85.66;99436.63;2118340;84;27689;-66
2022/11/16 04:51:15;;;;;;;69.97;41.37;;;;;;;5.10;85.66;99448.85;2118053;84;28708;-66
2022/11/16 04:54:17;;;;;;;73.33;42.73;;;;;;;5.13;85.60;99446.56;2118186;84;31094;-66
2022/11/16 04:57:18;;;;;;;72.05;43.28;;;;;;;5.16;85.67;99440.65;2135224;81;33287;-66
2022/11/16 05:00:20;;;;;;;78.67;42.98;;;;;;;5.17;85.61;99441.50;2199808;80;29128;-66
2022/11/16 05:03:22;;;;;;;73.50;42.23;;;;;;;5.17;85.60;99432.20;2200176;80;27685;-66
2022/11/16 05:06:23;;;;;;;75.67;41.70;;;;;;;5.16;85.55;99431.80;2200070;80;28635;-66
2022/11/16 05:09:28;;;;;;;71.80;40.25;;;;;;;5.18;85.65;99433.94;2200035;80;31003;-66
2022/11/16 05:12:30;;;;;;;77.03;43.48;;;;;;;5.19;85.64;99427.70;2200043;80;33008;-66
2022/11/16 05:15:32;;;;;;;70.83;40.17;;;;;;;5.19;85.64;99425.52;2199873;80;29044;-67
2022/11/16 05:18:33;;;;;;;76.40;41.10;;;;;;;5.18;85.71;99418.00;2200014;80;27749;-66
2022/11/16 05:21:35;;;;;;;72.55;40.30;;;;;;;5.17;85.86;99418.93;2200023;80;29522;-66
2022/11/16 05:24:36;;;;;;;79.07;41.23;;;;;;;5.16;85.86;99418.08;2199911;80;31163;-66
2022/11/16 05:27:38;;;;;;;68.20;37.80;;;;;;;5.16;86.08;99413.22;2199911;80;33806;-67
2022/11/16 05:30:40;;;;;;;85.50;41.92;;;;;;;5.15;86.24;99410.16;2199803;80;29840;-66
2022/11/16 05:33:42;;;;;;;75.65;38.65;;;;;;;5.13;86.28;99413.38;2182326;80;27721;-66
2022/11/16 05:36:44;;;;;;;82.12;41.83;;;;;;;5.12;86.29;99406.33;2199808;80;28835;-66
2022/11/16 05:39:46;;;;;;;75.47;39.00;;;;;;;5.11;86.24;99403.28;2199799;80;31019;-66
2022/11/16 05:42:48;;;;;;;80.72;40.33;;;;;;;5.13;86.25;99405.41;2199410;80;33028;-66
2022/11/16 05:45:49;;;;;;;76.92;39.88;;;;;;;5.14;86.37;99408.43;2199802;80;29011;-67
2022/11/16 05:48:51;;;;;;;79.12;39.95;;;;;;;5.16;86.29;99403.92;2199994;80;27701;-66
2022/11/16 05:51:53;;;;;;;80.22;39.35;;;;;;;5.21;86.37;99403.28;2199931;80;28813;-67
2022/11/16 05:54:54;;;;;;;79.20;38.05;;;;;;;5.25;86.35;99410.20;2199697;80;30979;-67
2022/11/16 05:57:56;;;;;;;77.10;37.42;;;;;;;5.27;86.34;99407.46;2229877;79;33005;-66
2022/11/16 06:00:58;;;;;;;76.40;37.25;;;;;;;5.29;86.29;99409.14;2235371;79;29060;-65
2022/11/16 06:04:01;;;;;;;79.32;38.23;;;;;;;5.30;86.22;99402.03;2235329;79;27708;-66
2022/11/16 06:07:03;;;;;;;80.22;39.23;;;;;;;5.33;86.17;99399.24;2235203;79;28762;-66
2022/11/16 06:10:05;;;;;;;80.20;38.88;;;;;;;5.37;86.30;99398.19;2235177;79;31838;-66
2022/11/16 06:13:07;;;;;;;77.95;37.48;;;;;;;5.39;86.23;99388.81;2235238;79;33831;-66
2022/11/16 06:16:10;;;;;;;80.28;38.60;;;;;;;5.42;86.23;99386.03;2235239;79;29012;-67
2022/11/16 06:19:12;;;;;;;78.70;37.08;;;;;;;5.42;86.15;99388.22;2235376;79;27684;-67
2022/11/16 06:22:14;;;;;;;80.55;38.90;;;;;;;5.44;86.19;99388.16;2235307;79;28683;-67
2022/11/16 06:25:15;;;;;;;80.32;37.05;;;;;;;5.44;86.23;99381.52;2235237;79;31026;-66
2022/11/16 06:28:19;;;;;;;78.33;35.73;;;;;;;5.47;86.23;99388.00;2234482;79;27783;-67
2022/11/16 06:31:20;;;;;;;82.15;36.70;;;;;;;5.50;86.32;99379.91;2235293;79;29069;-66
2022/11/16 06:34:23;;;;;;;88.22;36.90;;;;;;;5.53;86.28;99383.77;2235295;79;27709;-68
2022/11/16 06:37:25;;;;;;;81.47;37.88;;;;;;;5.56;86.28;99380.10;2234804;79;28692;-66
2022/11/16 06:40:26;;;;;;;82.45;37.23;;;;;;;5.57;86.31;99374.73;2235111;79;31021;-67
2022/11/16 06:43:28;;;;;;;89.15;38.00;;;;;;;5.60;86.31;99367.09;2235194;79;32938;-67
2022/11/16 06:46:31;;;;;;;88.40;39.18;;;;;;;5.62;86.26;99363.45;2235013;79;29831;-68
2022/11/16 06:49:32;;;;;;;97.17;40.28;;;;;;;5.67;86.31;99369.00;2235144;79;27677;-68
2022/11/16 06:52:34;;;;;;;95.72;39.50;;;;;;;5.70;86.31;99360.90;2235142;79;28636;-67
2022/11/16 06:55:36;;;;;;;96.90;42.17;;;;;;;5.71;86.29;99360.82;2235107;79;30453;-67
2022/11/16 06:58:37;;;;;;;94.67;39.13;;;;;;;5.73;86.33;99365.61;2232758;79;32928;-67
2022/11/16 07:01:39;;;;;;;107.50;43.08;;;;;;;5.78;86.35;99374.72;2234986;79;29856;-68
2022/11/16 07:04:40;;;;;;;95.15;37.90;;;;;;;5.81;86.28;99377.70;2235234;79;27734;-67
2022/11/16 07:07:42;;;;;;;98.87;39.65;;;;;;;5.85;86.33;99370.84;2235547;79;28638;-68
2022/11/16 07:10:44;;;;;;;89.35;38.25;;;;;;;5.88;86.25;99376.47;2235180;79;30938;-67
2022/11/16 07:13:47;;;;;;;96.00;39.73;;;;;;;5.89;86.25;99380.41;2235159;79;33060;-68
2022/11/16 07:16:48;;;;;;;93.42;38.60;;;;;;;5.92;86.31;99380.27;2235092;79;29063;-67
2022/11/16 07:19:50;;;;;;;104.63;40.15;;;;;;;5.93;86.30;99382.45;2235233;79;27770;-67
2022/11/16 07:22:52;;;;;;;101.53;40.08;;;;;;;5.93;86.22;99378.47;2235264;79;28672;-68
2022/11/16 07:25:54;;;;;;;95.53;39.23;;;;;;;5.95;86.32;99371.28;2235201;79;30992;-68
2022/11/16 07:28:57;;;;;;;104.32;41.02;;;;;;;5.99;86.37;99372.00;2235101;79;33078;-68
2022/11/16 07:31:59;;;;;;;100.50;41.18;;;;;;;6.03;86.35;99373.63;2235133;79;28451;-69
2022/11/16 07:35:01;;;;;;;110.50;42.83;;;;;;;6.06;86.33;99371.68;2234842;79;27641;-67
2022/11/16 07:38:03;;;;;;;112.10;43.90;;;;;;;6.09;86.35;99380.00;2234819;79;28609;-68
2022/11/16 07:41:09;;;;;;;104.63;40.98;;;;;;;6.10;86.24;99375.53;2235107;79;30994;-68
2022/11/16 07:44:11;;;;;;;98.72;40.63;;;;;;;6.11;86.27;99374.60;2234025;79;33145;-68
2022/11/16 07:47:12;;;;;;;106.07;39.98;;;;;;;6.08;86.15;99377.80;2235125;79;29009;-66
2022/11/16 07:50:14;;;;;;;96.37;39.92;;;;;;;6.08;86.16;99378.28;2235374;79;27823;-67
2022/11/16 07:53:16;;;;;;;104.20;40.00;;;;;;;6.07;86.23;99373.41;2235073;79;29622;-68
2022/11/16 07:56:17;;;;;;;105.90;40.45;;;;;;;6.09;86.26;99377.34;2236206;78;31991;-67
2022/11/16 07:59:19;;;;;;;112.65;40.38;;;;;;;6.12;86.31;99370.56;2254220;79;33800;-67
2022/11/16 08:02:20;;;;;;;93.00;39.45;;;;;;;6.14;86.31;99379.30;2254196;79;29017;-67
2022/11/16 08:05:22;;;;;;;91.87;38.60;;;;;;;6.20;86.36;99380.84;2265603;78;27673;-67
2022/11/16 08:08:24;;;;;;;103.38;41.95;;;;;;;6.19;86.32;99384.44;2246929;79;29689;-67
2022/11/16 08:11:26;;;;;;;96.72;41.00;;;;;;;6.19;86.25;99381.30;2265377;78;30722;-69
2022/11/16 08:14:28;;;;;;;109.70;43.83;;;;;;;6.19;86.22;99382.63;2246771;79;33000;-69
2022/11/16 08:17:30;;;;;;;95.22;40.25;;;;;;;6.23;86.30;99389.98;2265254;78;29149;-68
2022/11/16 08:20:33;;;;;;;100.25;40.08;;;;;;;6.24;86.31;99383.73;2246892;79;27641;-67
2022/11/16 08:23:35;;;;;;;91.35;38.25;;;;;;;6.22;86.19;99389.13;2265506;78;29462;-67
2022/11/16 08:26:36;;;;;;;88.47;36.63;;;;;;;6.21;86.22;99391.84;2247065;79;31191;-66
2022/11/16 08:29:38;;;;;;;93.78;37.95;;;;;;;6.19;86.24;99390.60;2265588;78;32965;-67
2022/11/16 08:32:41;;;;;;;97.70;38.48;;;;;;;6.17;86.19;99385.81;2246863;79;30133;-67
2022/11/16 08:35:43;;;;;;;90.47;37.33;;;;;;;6.14;86.21;99381.11;2265145;78;27626;-67
2022/11/16 08:38:48;;;;;;;90.22;36.20;;;;;;;6.13;86.26;99380.23;2247091;79;28636;-67
2022/11/16 08:41:50;;;;;;;89.10;37.73;;;;;;;6.11;86.30;99383.91;2265490;78;31090;-68
2022/11/16 08:44:52;;;;;;;81.78;33.33;;;;;;;6.09;86.29;99381.33;2246864;79;32964;-67
2022/11/16 08:47:53;;;;;;;80.85;34.70;;;;;;;6.08;86.25;99393.75;2265604;78;29036;-69
2022/11/16 08:50:57;;;;;;;84.65;35.00;;;;;;;6.10;86.25;99402.12;2247278;79;27763;-67
2022/11/16 08:53:58;;;;;;;80.60;33.10;;;;;;;6.07;86.16;99403.98;2235895;78;28674;-68
2022/11/16 08:57:00;;;;;;;77.37;35.08;;;;;;;6.07;86.21;99404.47;2246867;78;31017;-68
2022/11/16 09:00:02;;;;;;;85.25;33.70;;;;;;;6.07;86.25;99400.48;2269118;78;33808;-67
2022/11/16 09:03:04;;;;;;;80.90;34.48;;;;;;;6.08;86.21;99403.53;2247378;79;29867;-67
2022/11/16 09:06:07;;;;;;;73.92;31.52;;;;;;;6.05;86.08;99410.31;2269546;78;27674;-67
2022/11/16 09:09:09;;;;;;;79.07;34.92;;;;;;;6.03;86.17;99414.84;2247425;79;28629;-68
2022/11/16 09:12:10;;;;;;;203.83;83.27;;;;;;;6.01;86.18;99412.27;2269638;78;30995;-67
2022/11/16 09:15:12;;;;;;;148.17;60.50;;;;;;;6.01;86.19;99421.56;2247392;79;33094;-67
2022/11/16 09:18:14;;;;;;;90.03;38.02;;;;;;;5.99;86.11;99419.41;2269417;78;29794;-68
2022/11/16 09:21:19;;;;;;;78.72;32.88;;;;;;;5.97;86.14;99425.25;2247378;79;27775;-68
2022/11/16 09:24:20;;;;;;;;;;;;;;;5.94;86.18;99421.40;2272311;78;29515;-67
2022/11/16 09:27:22;;;;;;;81.97;31.27;;;;;;;5.92;86.19;99420.16;2269532;78;32047;-67
2022/11/16 09:30:23;;;;;;;77.27;33.48;;;;;;;5.90;86.31;99424.67;2247279;79;33011;-68
2022/11/16 09:33:26;;;;;;;72.03;29.35;;;;;;;5.90;86.30;99427.33;2269513;78;29884;-67
2022/11/16 09:36:28;;;;;;;100.33;53.15;;;;;;;5.90;86.33;99424.67;2222462;79;27704;-70
2022/11/16 09:39:31;;;;;;;82.78;38.65;;;;;;;5.88;86.20;99423.87;2269565;78;28706;-68
2022/11/16 09:42:47;;;;;;;68.10;30.57;;;;;;;5.87;86.12;99417.30;2247389;79;31188;-68
2022/11/16 09:46:06;;;;;;;70.80;33.10;;;;;;;5.85;86.12;99411.19;2269566;78;32932;-67
2022/11/16 09:49:36;;;;;;;71.92;34.45;;;;;;;5.85;86.25;99412.52;2209623;80;30136;-68
2022/11/16 09:52:44;;;;;;;67.00;31.73;;;;;;;5.83;86.16;99408.58;2220342;80;28039;-68
2022/11/16 09:55:53;;;;;;;73.37;35.03;;;;;;;5.84;86.17;99414.30;2220665;80;28728;-67
2022/11/16 09:59:18;;;;;;;71.53;31.25;;;;;;;5.83;86.14;99413.90;2201340;80;31038;-67
2022/11/16 10:02:31;;;;;;;71.95;31.37;;;;;;;5.83;86.22;99401.09;2195453;81;33221;-68
2022/11/16 10:05:43;;;;;;;73.05;33.70;;;;;;;5.81;86.28;99390.98;2195297;81;29031;-67
2022/11/16 10:08:47;;;;;;;71.80;29.15;;;;;;;5.80;86.28;99390.59;2148900;82;27873;-67
2022/11/16 10:11:56;;;;;;;60.48;29.90;;;;;;;5.80;86.32;99382.61;2183807;81;28651;-67
2022/11/16 10:15:06;;;;;;;65.90;30.08;;;;;;;5.77;86.19;99383.63;2194511;81;31085;-67
2022/11/16 10:18:39;;;;;;;61.75;29.40;;;;;;;5.75;86.33;99381.50;2194641;81;33200;-67
2022/11/16 10:21:49;;;;;;;62.55;28.95;;;;;;;5.75;86.38;99374.38;2194770;81;29213;-67
2022/11/16 10:25:00;;;;;;;61.48;28.77;;;;;;;5.76;86.36;99365.95;2198109;80;27784;-66
2022/11/16 10:28:25;;;;;;;60.90;28.45;;;;;;;5.78;86.42;99361.44;2191543;80;29797;-68
2022/11/16 10:31:53;;;;;;;57.85;28.98;;;;;;;5.76;86.21;99356.65;2158989;81;31206;-66
2022/11/16 10:35:08;;;;;;;62.80;28.35;;;;;;;5.76;86.27;99356.65;2158568;82;32998;-67
2022/11/16 10:38:17;;;;;;;62.65;28.83;;;;;;;5.72;86.37;99355.91;2157892;82;29031;-66
2022/11/16 10:41:23;;;;;;;70.37;30.90;;;;;;;5.69;86.30;99354.73;2134329;82;27834;-68
2022/11/16 10:44:38;;;;;;;92.88;40.83;;;;;;;5.71;86.42;99354.66;2155963;82;28654;-66
2022/11/16 10:47:57;;;;;;;81.12;36.98;;;;;;;5.73;86.51;99352.80;2158347;82;31029;-67
2022/11/16 10:51:00;;;;;;;65.22;30.00;;;;;;;5.75;86.48;99350.94;2158652;82;33005;-67
2022/11/16 10:54:03;;;;;;;79.42;33.92;;;;;;;5.78;86.47;99342.35;2133982;82;29824;-67
2022/11/16 10:57:13;;;;;;;77.00;34.60;;;;;;;5.77;86.43;99345.09;2160313;80;27816;-66
2022/11/16 11:00:15;;;;;;;81.32;36.10;;;;;;;5.76;86.49;99342.03;2217159;80;28698;-64
2022/11/16 11:03:29;;;;;;;101.22;45.70;;;;;;;5.75;86.48;99342.48;2149869;79;31115;-63
2022/11/16 11:06:31;;;;;;;74.53;35.90;;;;;;;5.83;86.60;99342.13;2225213;78;33340;-63
2022/11/16 11:09:36;;;;;;;75.20;33.00;;;;;;;5.91;86.67;99338.67;2231781;78;28482;-62
2022/11/16 11:12:38;;;;;;;73.45;32.45;;;;;;;5.99;86.39;99334.78;2243441;78;27734;-64
2022/11/16 11:15:43;;;;;;;80.77;38.35;;;;;;;6.02;86.17;99332.90;2236676;78;28823;-65
2022/11/16 11:18:45;;;;;;;84.58;45.15;;;;;;;6.05;85.99;99337.20;2244993;78;32194;-61
2022/11/16 11:21:49;;;;;;;71.17;35.23;;;;;;;6.08;85.74;99342.38;2232298;78;33816;-62
2022/11/16 11:24:51;;;;;;;72.78;37.83;;;;;;;6.04;85.51;99334.98;2254199;78;30063;-61
2022/11/16 11:28:15;;;;;;;68.45;34.18;;;;;;;6.05;85.59;99338.05;2236064;78;27688;-62
2022/11/16 11:31:24;;;;;;;66.47;32.98;;;;;;;6.04;85.30;99336.32;2216697;79;28586;-62
2022/11/16 11:34:31;;;;;;;69.03;34.10;;;;;;;5.98;85.05;99341.91;2222507;79;31805;-61
2022/11/16 11:37:35;;;;;;;75.60;34.13;;;;;;;5.96;85.28;99332.30;2234530;77;33020;-62
2022/11/16 11:40:37;;;;;;;78.60;36.50;;;;;;;5.98;85.48;99331.72;2233284;79;29139;-62
2022/11/16 11:43:40;;;;;;;75.20;37.65;;;;;;;5.99;85.45;99333.00;2255983;78;27674;-61
2022/11/16 11:47:04;;;;;;;67.37;33.28;;;;;;;6.00;85.41;99333.44;2229617;79;29653;-63
2022/11/16 11:50:19;;;;;;;59.88;29.72;;;;;;;6.02;85.29;99330.69;2215265;78;31877;-62
2022/11/16 11:53:40;;;;;;;;;;;;;;;6.00;84.95;99320.59;2238200;79;34399;-61
2022/11/16 11:56:41;;;;;;;70.30;35.92;;;;;;;5.97;84.84;99319.36;2244435;78;29027;-61
2022/11/16 11:59:43;;;;;;;63.02;33.25;;;;;;;5.93;84.95;99309.34;2227944;78;27662;-62
2022/11/16 12:03:25;;;;;;;67.40;33.73;;;;;;;5.93;84.99;99318.66;2231519;78;29142;-61
2022/11/16 12:07:08;;;;;;;55.85;30.00;;;;;;;5.93;84.88;99314.22;2227062;78;32208;-63
2022/11/16 12:10:39;;;;;;;60.00;30.50;;;;;;;5.91;84.85;99310.77;2254103;78;34083;-62
2022/11/16 12:14:06;;;;;;;64.37;34.03;;;;;;;5.86;84.83;99306.59;2189589;80;30252;-62
2022/11/16 12:17:42;;;;;;;52.60;29.63;;;;;;;5.83;84.93;99306.25;2199921;80;27744;-62
2022/11/16 12:21:05;;;;;;;49.18;25.90;;;;;;;5.81;84.88;99313.91;2211037;80;29056;-63
2022/11/16 12:24:20;;;;;;;51.60;28.50;;;;;;;5.79;84.97;99311.34;2203692;80;31008;-61
2022/11/16 12:27:45;;;;;;;52.60;29.67;;;;;;;5.79;84.93;99303.36;2202372;80;33390;-67
2022/11/16 12:31:04;;;;;;;59.05;29.75;;;;;;;5.75;84.85;99298.64;2211054;80;29114;-67
2022/11/16 12:34:25;;;;;;;54.67;27.10;;;;;;;5.77;84.92;99302.09;2212565;80;27879;-66
2022/11/16 12:37:38;;;;;;;60.60;30.60;;;;;;;5.75;84.83;99295.13;2212079;80;29716;-66
2022/11/16 12:41:06;;;;;;;65.92;31.75;;;;;;;5.73;84.85;99284.55;2212138;80;31033;-66
2022/11/16 12:44:11;;;;;;;56.95;31.07;;;;;;;5.72;84.88;99284.16;2212402;80;33599;-67
2022/11/16 12:47:25;;;;;;;;;;;;;;;5.72;84.90;99282.83;2236911;78;29919;-66
2022/11/16 12:50:47;;;;;;;58.42;28.65;;;;;;;5.74;84.91;99285.44;2270656;78;27693;-66
2022/11/16 12:54:11;;;;;;;62.13;31.85;;;;;;;5.71;84.97;99284.23;2244780;79;28655;-64
2022/11/16 12:57:23;;;;;;;52.83;28.60;;;;;;;5.69;85.10;99279.45;2270177;78;31052;-66
2022/11/16 13:00:26;;;;;;;61.20;28.60;;;;;;;5.66;85.13;99279.14;2247102;79;33056;-67
2022/11/16 13:03:59;;;;;;;52.08;28.42;;;;;;;5.66;85.34;99281.80;2269693;78;29033;-66
2022/11/16 13:07:16;;;;;;;74.22;39.55;;;;;;;5.65;85.35;99281.41;2246487;79;27616;-67
2022/11/16 13:10:26;;;;;;;89.90;48.87;;;;;;;5.60;85.40;99274.98;2269704;78;28655;-67
2022/11/16 13:13:28;;;;;;;61.10;32.13;;;;;;;5.57;85.50;99279.09;2247590;79;31842;-65
2022/11/16 13:16:30;;;;;;;72.08;43.13;;;;;;;5.57;85.60;99275.56;2269689;78;32931;-66
2022/11/16 13:19:35;;;;;;;88.42;53.10;;;;;;;5.57;85.69;99275.11;2247571;79;29031;-66
2022/11/16 13:22:37;;;;;;;;;;;;;;;5.56;85.68;99282.69;2272516;78;27688;-65
2022/11/16 13:25:59;;;;;;;80.50;44.70;;;;;;;5.56;85.74;99281.80;2269791;78;29442;-65
2022/11/16 13:29:15;;;;;;;64.07;36.05;;;;;;;5.54;85.83;99285.88;2247548;79;31440;-65
2022/11/16 13:32:52;;;;;;;51.48;30.90;;;;;;;5.55;85.90;99288.05;2269586;78;33412;-65
2022/11/16 13:35:54;;;;;;;52.83;27.67;;;;;;;5.56;85.92;99281.80;2247653;79;29058;-65
2022/11/16 13:38:56;;;;;;;76.10;44.25;;;;;;;5.55;86.00;99285.39;2269428;78;27677;-66
2022/11/16 13:42:11;;;;;;;79.27;47.38;;;;;;;5.53;86.06;99287.28;2247521;79;28639;-66
2022/11/16 13:45:18;;;;;;;58.00;33.98;;;;;;;5.52;86.13;99288.21;2269709;78;31068;-65
2022/11/16 13:48:34;;;;;;;65.37;37.95;;;;;;;5.51;86.35;99297.95;2247328;79;33847;-67
2022/11/16 13:51:36;;;;;;;68.65;38.90;;;;;;;5.47;86.15;99291.05;2269553;78;29971;-66
2022/11/16 13:54:48;;;;;;;122.90;66.28;;;;;;;5.45;86.38;99292.46;2247447;79;27710;-66
2022/11/16 13:57:51;;;;;;;96.10;52.33;;;;;;;5.47;86.58;99291.05;2269510;78;28830;-66
2022/11/16 14:01:01;;;;;;;141.75;85.95;;;;;;;5.51;86.67;99287.81;2247059;79;31830;-66
2022/11/16 14:04:34;;;;;;;92.20;52.27;;;;;;;5.50;86.52;99286.94;2269637;78;33814;-66
2022/11/16 14:07:46;;;;;;;120.42;63.33;;;;;;;5.46;86.39;99286.22;2171144;82;29830;-66
2022/11/16 14:10:52;;;;;;;96.45;54.15;;;;;;;5.47;86.51;99289.72;2170840;82;27770;-66
2022/11/16 14:13:53;;;;;;;114.67;66.15;;;;;;;5.46;86.61;99292.02;2162225;82;28660;-66
2022/11/16 14:16:55;;;;;;;82.53;48.48;;;;;;;5.44;86.67;99282.77;2162312;82;30989;-66
2022/11/16 14:19:57;;;;;;;91.45;55.35;;;;;;;5.43;86.67;99277.53;2162260;82;33081;-66
2022/11/16 14:23:12;;;;;;;62.38;37.73;;;;;;;5.39;86.70;99286.56;2162049;82;29212;-66
2022/11/16 14:26:39;;;;;;;84.75;52.73;;;;;;;5.36;86.85;99288.91;2162585;82;27751;-66
2022/11/16 14:29:54;;;;;;;77.12;47.15;;;;;;;5.33;86.82;99286.38;2162175;82;28649;-67
2022/11/16 14:32:57;;;;;;;48.20;30.10;;;;;;;5.34;87.03;99282.80;2162368;82;31043;-67
2022/11/16 14:36:01;;;;;;;61.77;37.78;;;;;;;5.29;86.94;99280.34;2162100;82;33798;-66
2022/11/16 14:39:40;;;;;;;33.08;20.72;;;;;;;5.28;87.02;99275.97;2162242;82;29818;-66
2022/11/16 14:42:53;;;;;;;56.00;35.33;;;;;;;5.25;87.12;99276.55;2249937;78;27731;-67
2022/11/16 14:45:58;;;;;;;45.90;28.77;;;;;;;5.22;87.16;99270.03;2123742;83;28895;-67
2022/11/16 14:49:01;;;;;;;63.52;44.03;;;;;;;5.19;87.15;99275.03;2123438;83;31053;-67
2022/11/16 14:52:04;;;;;;;43.78;27.37;;;;;;;5.16;87.24;99278.69;2123518;83;32966;-67
2022/11/16 14:55:08;;;;;;;39.45;23.57;;;;;;;5.14;87.22;99279.22;2123411;83;28418;-67
2022/11/16 14:58:21;;;;;;;41.45;26.87;;;;;;;5.10;87.24;99280.76;2123781;83;27669;-67
2022/11/16 15:01:28;;;;;;;50.12;28.25;;;;;;;5.06;87.28;99281.33;2122991;83;29593;-66
2022/11/16 15:04:30;;;;;;;62.40;39.53;;;;;;;5.04;87.39;99275.25;2122820;83;31231;-66
2022/11/16 15:07:32;;;;;;;65.12;44.42;;;;;;;5.03;87.41;99273.53;2123401;83;33012;-66